Time;durP1;ratioP1;P1;durP2;ratioP2;P2;SDS_P1;SDS_P2;PMS_P1;PMS_P2;Temp;Humidity;BMP_temperature;BMP_pressure;BME280_temperature;BME280_humidity;BME280_pressure;Samples;Min_cycle;Max_cycle;Signal;HPM_P1;HPM_P2
2023/04/07 00:02:29;;;;;;;21.80;19.02;;;7.30;81.00;;;;;;5013416;28;20018;-53
2023/04/07 00:05:15;;;;;;;20.70;18.50;;;7.20;81.80;;;;;;5001697;28;20018;-52
2023/04/07 00:08:01;;;;;;;24.60;17.48;;;7.20;82.20;;;;;;5000437;28;20387;-55
2023/04/07 00:10:47;;;;;;;22.30;18.45;;;7.10;81.40;;;;;;5016081;28;20042;-52
2023/04/07 00:13:33;;;;;;;20.05;18.02;;;7.00;82.50;;;;;;5008148;28;20044;-46
2023/04/07 00:16:19;;;;;;;21.13;17.83;;;7.00;83.00;;;;;;5015262;28;20026;-50
2023/04/07 00:19:05;;;;;;;18.90;16.67;;;7.10;82.90;;;;;;5014753;28;20124;-47
2023/04/07 00:21:53;;;;;;;23.38;18.15;;;7.00;81.20;;;;;;5014905;28;20034;-46
2023/04/07 00:24:38;;;;;;;19.92;17.33;;;6.80;81.30;;;;;;4995759;28;20045;-50
2023/04/07 00:27:25;;;;;;;21.58;18.08;;;6.90;81.80;;;;;;4995203;28;20030;-48
2023/04/07 00:30:11;;;;;;;19.92;16.88;;;6.90;82.20;;;;;;5014232;28;20038;-50
2023/04/07 00:32:57;;;;;;;21.95;16.80;;;6.90;81.50;;;;;;5015514;28;20030;-45
2023/04/07 00:35:43;;;;;;;18.65;16.60;;;6.90;81.60;;;;;;5016020;28;20105;-49
2023/04/07 00:38:30;;;;;;;22.35;19.33;;;6.80;81.00;;;;;;5015992;28;20403;-46
2023/04/07 00:41:15;;;;;;;21.17;17.25;;;6.80;81.80;;;;;;5014670;28;20040;-47
2023/04/07 00:44:02;;;;;;;21.70;18.00;;;6.80;82.00;;;;;;5013627;28;20069;-48
2023/04/07 00:46:48;;;;;;;20.65;18.17;;;6.80;82.50;;;;;;5015151;28;20033;-46
2023/04/07 00:49:35;;;;;;;19.15;17.15;;;6.80;83.00;;;;;;5014663;28;20077;-49
2023/04/07 00:52:27;;;;;;;20.27;17.83;;;6.80;83.30;;;;;;5013404;28;20022;-47
2023/04/07 00:55:13;;;;;;;21.95;18.55;;;6.80;83.60;;;;;;5001127;28;20510;-49
2023/04/07 00:57:59;;;;;;;19.30;17.23;;;6.80;83.50;;;;;;5013519;28;20104;-50
2023/04/07 01:01:06;;;;;;;22.73;18.30;;;6.70;83.30;;;;;;5015644;28;20030;-49
2023/04/07 01:04:07;;;;;;;19.73;17.58;;;6.70;82.90;;;;;;5007931;28;20387;-47
2023/04/07 01:07:00;;;;;;;20.33;17.42;;;6.50;82.30;;;;;;5014066;28;20026;-48
2023/04/07 01:10:03;;;;;;;18.42;16.42;;;6.50;81.70;;;;;;5015082;28;20498;-47
2023/04/07 01:13:05;;;;;;;22.73;15.55;;;6.50;82.20;;;;;;4999766;28;20030;-49
2023/04/07 01:15:55;;;;;;;20.55;16.88;;;6.50;82.40;;;;;;5015057;28;20033;-46
2023/04/07 01:18:43;;;;;;;19.95;17.15;;;6.50;82.10;;;;;;5013345;28;20045;-48
2023/04/07 01:21:33;;;;;;;21.70;17.20;;;6.40;82.60;;;;;;5013178;28;20026;-45
2023/04/07 01:24:31;;;;;;;18.23;16.02;;;6.40;82.30;;;;;;5013351;28;20446;-44
2023/04/07 01:27:37;;;;;;;20.25;16.30;;;6.30;81.80;;;;;;5014202;28;20036;-45
2023/04/07 01:30:27;;;;;;;19.63;16.65;;;6.20;82.30;;;;;;5012875;28;20029;-48
2023/04/07 01:33:14;;;;;;;20.23;16.90;;;6.10;82.90;;;;;;5012466;28;20081;-45
2023/04/07 01:36:02;;;;;;;17.65;15.85;;;6.10;83.40;;;;;;4979547;28;20024;-50
2023/04/07 01:38:49;;;;;;;19.60;17.10;;;6.10;83.40;;;;;;5006534;28;20045;-47
2023/04/07 01:41:37;;;;;;;18.45;15.65;;;6.20;83.20;;;;;;5014470;28;20034;-47
2023/04/07 01:44:24;;;;;;;18.17;15.48;;;6.20;82.70;;;;;;5014924;28;20096;-48
2023/04/07 01:47:11;;;;;;;22.23;15.90;;;6.10;82.30;;;;;;5015778;28;20165;-49
2023/04/07 01:50:05;;;;;;;17.85;15.35;;;6.10;82.60;;;;;;4995545;28;20034;-50
2023/04/07 01:52:52;;;;;;;18.30;15.57;;;6.10;82.50;;;;;;4999618;28;20037;-52
2023/04/07 01:55:38;;;;;;;17.83;15.57;;;6.20;81.80;;;;;;5012539;28;20030;-45
2023/04/07 01:58:25;;;;;;;17.95;16.05;;;6.10;81.60;;;;;;5011451;28;20026;-48
2023/04/07 02:01:13;;;;;;;17.23;15.27;;;6.10;81.60;;;;;;5011581;28;20069;-48
2023/04/07 02:04:14;;;;;;;19.20;15.75;;;6.00;81.30;;;;;;5012102;28;20037;-50
2023/04/07 02:07:07;;;;;;;18.00;16.08;;;6.00;81.20;;;;;;5012520;28;20041;-46
2023/04/07 02:09:57;;;;;;;18.50;16.60;;;6.10;81.50;;;;;;5012078;28;20032;-48
2023/04/07 02:12:46;;;;;;;19.02;16.13;;;6.00;81.50;;;;;;5013481;28;20034;-50
2023/04/07 02:15:32;;;;;;;19.08;17.08;;;5.90;81.60;;;;;;5014704;28;20037;-50
2023/04/07 02:18:20;;;;;;;17.15;15.02;;;5.90;82.20;;;;;;5014403;28;20054;-45
2023/04/07 02:21:07;;;;;;;20.33;16.17;;;6.00;81.60;;;;;;5012052;28;20034;-49
2023/04/07 02:23:53;;;;;;;19.02;15.88;;;5.90;81.50;;;;;;4997284;28;20049;-46
2023/04/07 02:26:39;;;;;;;17.90;16.10;;;5.90;81.70;;;;;;5013134;28;20563;-45
2023/04/07 02:29:26;;;;;;;19.05;16.08;;;5.90;81.80;;;;;;5013483;28;20056;-46
2023/04/07 02:32:12;;;;;;;18.35;15.45;;;5.90;81.60;;;;;;5012669;28;20107;-45
2023/04/07 02:34:58;;;;;;;19.48;15.73;;;5.80;82.00;;;;;;4979375;28;20503;-46
2023/04/07 02:37:45;;;;;;;18.02;15.68;;;5.90;82.00;;;;;;4994945;28;20034;-52
2023/04/07 02:40:31;;;;;;;17.58;15.60;;;5.90;81.80;;;;;;5012033;28;20116;-51
2023/04/07 02:43:19;;;;;;;18.60;16.00;;;5.90;81.80;;;;;;5011614;28;20085;-53
2023/04/07 02:46:05;;;;;;;20.95;16.38;;;5.80;81.90;;;;;;5012366;28;20026;-49
2023/04/07 02:48:51;;;;;;;20.05;16.85;;;5.70;82.50;;;;;;5011577;28;20469;-52
2023/04/07 02:51:37;;;;;;;16.92;14.80;;;5.80;82.60;;;;;;5012693;28;20033;-52
2023/04/07 02:54:23;;;;;;;16.83;15.02;;;5.80;82.40;;;;;;5011521;28;20022;-51
2023/04/07 02:57:09;;;;;;;16.92;15.23;;;5.80;82.30;;;;;;5010119;28;20030;-52
2023/04/07 02:59:56;;;;;;;17.45;15.38;;;5.80;82.00;;;;;;5011090;28;20120;-54
2023/04/07 03:02:42;;;;;;;18.25;15.10;;;5.80;81.90;;;;;;4997562;28;20057;-54
2023/04/07 03:05:28;;;;;;;18.30;15.68;;;5.80;81.90;;;;;;5011103;28;20053;-56
2023/04/07 03:08:15;;;;;;;16.52;14.75;;;5.80;81.90;;;;;;5012511;28;20685;-53
2023/04/07 03:11:00;;;;;;;17.98;15.75;;;5.80;81.80;;;;;;5012293;28;20095;-50
2023/04/07 03:13:46;;;;;;;16.52;14.73;;;5.70;81.80;;;;;;5011118;28;20104;-51
2023/04/07 03:16:32;;;;;;;18.20;15.10;;;5.70;82.00;;;;;;5011566;28;20030;-55
2023/04/07 03:19:18;;;;;;;17.38;14.88;;;5.70;82.10;;;;;;5011215;28;20052;-54
2023/04/07 03:22:04;;;;;;;17.23;14.38;;;5.70;82.30;;;;;;5012546;28;20056;-53
2023/04/07 03:24:50;;;;;;;20.23;15.60;;;5.70;82.10;;;;;;4992768;28;20499;-56
2023/04/07 03:27:36;;;;;;;18.23;15.38;;;5.70;82.00;;;;;;5006439;28;20454;-54
2023/04/07 03:30:22;;;;;;;18.27;15.40;;;5.60;82.70;;;;;;5011440;28;20034;-51
2023/04/07 03:33:08;;;;;;;18.65;14.93;;;5.50;83.10;;;;;;5005738;28;20027;-50
2023/04/07 03:35:54;;;;;;;18.00;16.20;;;5.60;84.10;;;;;;5012651;28;20034;-54
2023/04/07 03:38:40;;;;;;;17.58;14.60;;;5.50;84.40;;;;;;4996898;28;20030;-53
2023/04/07 03:41:26;;;;;;;16.33;14.63;;;5.60;84.40;;;;;;5009307;28;20037;-55
2023/04/07 03:44:12;;;;;;;16.10;14.50;;;5.60;84.10;;;;;;5006408;28;20061;-54
2023/04/07 03:46:59;;;;;;;16.88;14.48;;;5.50;84.10;;;;;;4991516;28;20069;-52
2023/04/07 03:49:45;;;;;;;17.13;15.30;;;5.50;84.20;;;;;;5006951;28;20046;-50
2023/04/07 03:52:31;;;;;;;20.27;16.35;;;5.40;84.40;;;;;;5012237;28;20052;-51
2023/04/07 03:55:16;;;;;;;18.13;16.17;;;5.40;85.00;;;;;;5011517;28;20022;-54
2023/04/07 03:58:02;;;;;;;16.20;14.50;;;5.30;84.90;;;;;;5011339;28;20034;-54
2023/04/07 04:00:48;;;;;;;18.95;15.82;;;5.30;84.70;;;;;;5011069;28;20030;-52
2023/04/07 04:03:34;;;;;;;17.70;15.85;;;5.30;85.20;;;;;;4996820;28;20030;-53
2023/04/07 04:06:20;;;;;;;20.20;15.20;;;5.30;85.30;;;;;;4998293;28;20035;-51
2023/04/07 04:09:06;;;;;;;18.38;15.73;;;5.30;85.80;;;;;;5007910;28;20081;-58
2023/04/07 04:11:52;;;;;;;16.65;14.60;;;5.30;85.90;;;;;;5014602;28;20049;-54
2023/04/07 04:14:38;;;;;;;16.58;14.88;;;5.30;86.10;;;;;;5014189;28;20026;-56
2023/04/07 04:17:25;;;;;;;18.60;14.68;;;5.40;86.00;;;;;;5013610;28;20036;-53
2023/04/07 04:20:11;;;;;;;18.20;15.82;;;5.40;85.90;;;;;;5009894;28;20490;-50
2023/04/07 04:22:57;;;;;;;18.85;14.95;;;5.40;85.80;;;;;;5015572;28;20030;-49
2023/04/07 04:25:43;;;;;;;16.83;15.02;;;5.40;85.80;;;;;;5014627;28;20040;-48
2023/04/07 04:28:29;;;;;;;17.30;15.13;;;5.40;85.90;;;;;;5014188;28;20026;-52
2023/04/07 04:31:15;;;;;;;16.83;15.00;;;5.30;86.00;;;;;;5014171;28;20048;-53
2023/04/07 04:34:01;;;;;;;16.45;14.13;;;5.30;86.50;;;;;;5012900;28;20030;-54
2023/04/07 04:36:48;;;;;;;17.75;15.30;;;5.30;86.60;;;;;;5012971;28;20022;-49
2023/04/07 04:39:34;;;;;;;17.52;15.35;;;5.30;86.80;;;;;;5013421;28;20494;-53
2023/04/07 04:42:20;;;;;;;16.17;14.45;;;5.30;87.70;;;;;;5015691;28;20445;-55
2023/04/07 04:45:06;;;;;;;16.63;14.95;;;5.30;87.20;;;;;;5015740;28;20081;-52
2023/04/07 04:47:52;;;;;;;17.10;15.00;;;5.30;87.20;;;;;;5013425;28;20034;-53
2023/04/07 04:50:38;;;;;;;16.30;14.65;;;5.30;87.30;;;;;;5014771;28;20041;-54
2023/04/07 04:53:24;;;;;;;17.15;14.85;;;5.20;87.50;;;;;;5015238;28;20022;-53
2023/04/07 04:56:10;;;;;;;16.10;14.40;;;5.20;87.50;;;;;;5013076;28;20100;-50
2023/04/07 04:58:56;;;;;;;16.52;14.80;;;5.20;87.60;;;;;;5000622;28;20406;-52
2023/04/07 05:01:42;;;;;;;20.75;15.43;;;5.20;87.40;;;;;;5013470;28;20033;-55
2023/04/07 05:04:28;;;;;;;20.30;15.90;;;5.10;87.50;;;;;;5029475;28;20469;-56
2023/04/07 05:07:14;;;;;;;16.92;15.18;;;5.10;88.00;;;;;;5024525;28;20773;-51
2023/04/07 05:10:00;;;;;;;17.88;14.85;;;5.10;88.10;;;;;;5007668;28;20084;-49
2023/04/07 05:12:46;;;;;;;16.38;14.13;;;5.10;88.10;;;;;;4998651;28;20023;-48
2023/04/07 05:15:32;;;;;;;16.55;14.70;;;5.10;88.00;;;;;;5010216;28;20026;-50
2023/04/07 05:18:18;;;;;;;15.80;14.10;;;5.20;88.00;;;;;;5012245;28;20026;-49
2023/04/07 05:21:04;;;;;;;17.83;15.30;;;5.20;88.70;;;;;;5013165;28;20034;-52
2023/04/07 05:23:50;;;;;;;17.45;15.45;;;5.20;88.40;;;;;;5014312;28;20518;-47
2023/04/07 05:26:36;;;;;;;17.45;15.52;;;5.30;88.30;;;;;;4999427;28;20562;-47
2023/04/07 05:29:22;;;;;;;18.70;14.68;;;5.30;87.90;;;;;;5013570;28;20542;-50
2023/04/07 05:32:08;;;;;;;16.52;14.73;;;5.30;87.60;;;;;;5013310;28;20028;-50
2023/04/07 05:34:54;;;;;;;15.02;13.45;;;5.30;87.20;;;;;;5013492;28;20030;-48
2023/04/07 05:37:40;;;;;;;17.63;15.35;;;5.20;87.20;;;;;;4999202;28;20026;-47
2023/04/07 05:40:26;;;;;;;15.70;13.98;;;5.20;87.10;;;;;;5000422;28;20041;-48
2023/04/07 05:43:12;;;;;;;20.10;14.75;;;5.20;87.20;;;;;;5014878;28;20113;-48
2023/04/07 05:45:58;;;;;;;19.10;16.08;;;5.30;87.60;;;;;;5013175;28;20121;-55
2023/04/07 05:48:45;;;;;;;17.48;15.68;;;5.30;87.50;;;;;;4999407;28;20105;-49
2023/04/07 05:51:31;;;;;;;18.50;16.48;;;5.30;87.10;;;;;;4967774;28;20030;-51
2023/04/07 05:54:17;;;;;;;17.50;15.60;;;5.30;86.90;;;;;;5002905;28;20037;-52
2023/04/07 05:57:03;;;;;;;18.25;16.15;;;5.30;86.50;;;;;;5011854;28;20040;-49
2023/04/07 05:59:49;;;;;;;20.55;16.02;;;5.40;86.50;;;;;;5012442;28;20030;-48
2023/04/07 06:02:35;;;;;;;19.13;16.52;;;5.40;86.30;;;;;;5012194;28;20088;-48
2023/04/07 06:05:21;;;;;;;19.52;16.77;;;5.30;86.10;;;;;;5013579;28;20038;-54
2023/04/07 06:08:08;;;;;;;19.02;17.00;;;5.20;86.80;;;;;;5010021;28;20034;-50
2023/04/07 06:10:55;;;;;;;19.20;17.17;;;5.10;87.10;;;;;;5013063;28;20022;-51
2023/04/07 06:13:41;;;;;;;19.52;17.27;;;5.00;87.50;;;;;;5012637;28;20026;-50
2023/04/07 06:16:27;;;;;;;20.38;17.83;;;5.10;87.20;;;;;;5011854;28;20034;-50
2023/04/07 06:19:13;;;;;;;18.67;16.10;;;5.00;86.80;;;;;;5012092;28;20092;-48
2023/04/07 06:21:59;;;;;;;18.17;16.30;;;5.10;87.80;;;;;;5012498;28;20565;-48
2023/04/07 06:24:45;;;;;;;20.10;16.48;;;5.20;87.30;;;;;;4997741;28;20112;-50
2023/04/07 06:27:32;;;;;;;21.45;17.55;;;5.20;87.00;;;;;;5011896;28;20458;-52
2023/04/07 06:30:17;;;;;;;18.90;15.82;;;5.30;86.90;;;;;;5012097;28;20448;-54
2023/04/07 06:33:03;;;;;;;19.98;16.70;;;5.30;87.70;;;;;;5011792;28;20069;-49
2023/04/07 06:35:50;;;;;;;17.42;15.52;;;5.40;86.50;;;;;;4997776;28;20108;-49
2023/04/07 06:38:37;;;;;;;17.30;15.32;;;5.60;86.10;;;;;;5011791;28;20034;-49
2023/04/07 06:41:22;;;;;;;17.15;15.15;;;5.60;85.90;;;;;;5012168;28;20026;-49
2023/04/07 06:44:12;;;;;;;16.40;14.60;;;5.70;85.90;;;;;;5011822;28;20100;-54
2023/04/07 06:46:58;;;;;;;16.40;14.00;;;5.80;85.60;;;;;;5011706;28;20529;-49
2023/04/07 06:49:44;;;;;;;16.95;14.77;;;6.00;85.10;;;;;;5013219;28;20030;-51
2023/04/07 06:52:30;;;;;;;17.42;15.10;;;6.10;84.40;;;;;;4999049;28;20061;-50
2023/04/07 06:55:16;;;;;;;17.63;14.88;;;6.10;84.00;;;;;;5012484;28;20030;-49
2023/04/07 06:58:02;;;;;;;17.08;14.80;;;6.20;83.90;;;;;;4997692;28;20410;-56
2023/04/07 07:00:48;;;;;;;18.80;15.18;;;6.30;84.20;;;;;;4997260;28;20032;-50
2023/04/07 07:03:34;;;;;;;19.25;16.55;;;6.60;84.40;;;;;;5010806;28;20042;-53
2023/04/07 07:06:20;;;;;;;20.83;14.68;;;6.70;84.10;;;;;;5012888;28;20035;-52
2023/04/07 07:09:06;;;;;;;17.75;15.80;;;6.80;84.10;;;;;;5010859;28;20029;-52
2023/04/07 07:11:52;;;;;;;17.50;15.70;;;6.90;83.60;;;;;;4997890;28;20045;-49
2023/04/07 07:14:38;;;;;;;18.48;15.85;;;6.90;83.80;;;;;;5011589;28;20026;-50
2023/04/07 07:17:24;;;;;;;18.83;14.48;;;6.90;83.40;;;;;;4996330;28;20057;-53
2023/04/07 07:20:10;;;;;;;16.83;14.32;;;7.00;83.70;;;;;;5010345;28;20033;-51
2023/04/07 07:22:57;;;;;;;17.08;13.80;;;7.20;83.20;;;;;;5011042;28;20030;-52
2023/04/07 07:25:43;;;;;;;15.88;14.25;;;7.30;83.10;;;;;;5002396;28;20034;-54
2023/04/07 07:28:29;;;;;;;16.63;14.77;;;7.50;82.50;;;;;;5010579;28;20033;-48
2023/04/07 07:31:16;;;;;;;15.50;13.23;;;7.60;82.50;;;;;;5011132;28;20117;-51
2023/04/07 07:34:02;;;;;;;16.00;13.77;;;7.80;81.90;;;;;;5011876;28;20027;-51
2023/04/07 07:36:47;;;;;;;16.58;14.75;;;8.00;81.30;;;;;;5011443;28;20116;-49
2023/04/07 07:39:33;;;;;;;15.98;13.07;;;8.10;81.20;;;;;;5012505;28;20041;-52
2023/04/07 07:42:19;;;;;;;14.93;13.32;;;8.20;80.00;;;;;;5015798;28;20030;-55
2023/04/07 07:45:06;;;;;;;14.55;12.73;;;8.20;79.20;;;;;;5000749;28;20034;-53
2023/04/07 07:47:52;;;;;;;17.58;13.95;;;8.30;79.10;;;;;;5014572;28;20537;-51
2023/04/07 07:50:38;;;;;;;16.00;14.20;;;8.20;79.50;;;;;;5015306;28;20482;-49
2023/04/07 07:53:24;;;;;;;14.85;13.27;;;8.30;79.80;;;;;;5016424;28;20486;-49
2023/04/07 07:56:10;;;;;;;14.52;13.05;;;8.30;80.30;;;;;;5014750;28;20034;-50
2023/04/07 07:58:56;;;;;;;15.45;13.77;;;8.30;80.60;;;;;;5014105;28;20641;-50
2023/04/07 08:01:42;;;;;;;18.48;14.45;;;8.20;80.70;;;;;;5015470;28;20410;-52
2023/04/07 08:04:28;;;;;;;14.90;13.43;;;8.10;80.90;;;;;;5014676;28;20029;-56
2023/04/07 08:07:15;;;;;;;15.68;14.00;;;8.10;82.10;;;;;;5014356;28;20026;-52
2023/04/07 08:10:01;;;;;;;16.25;12.98;;;8.20;81.80;;;;;;5015365;28;20025;-56
2023/04/07 08:12:47;;;;;;;17.02;13.40;;;8.30;81.50;;;;;;5014473;28;20141;-52
2023/04/07 08:15:33;;;;;;;16.48;12.95;;;8.40;80.80;;;;;;5013291;28;20105;-48
2023/04/07 08:18:19;;;;;;;17.60;13.05;;;8.40;81.10;;;;;;5003733;28;20537;-52
2023/04/07 08:21:05;;;;;;;15.30;13.13;;;8.70;80.30;;;;;;5005644;28;20158;-53
2023/04/07 08:23:52;;;;;;;17.02;13.52;;;8.80;79.70;;;;;;5006870;28;20080;-52
2023/04/07 08:26:38;;;;;;;16.83;13.13;;;8.90;79.60;;;;;;5007403;28;20045;-52
2023/04/07 08:29:24;;;;;;;17.90;13.45;;;9.10;79.30;;;;;;5014238;28;20041;-47
2023/04/07 08:32:10;;;;;;;18.40;13.95;;;9.10;78.10;;;;;;5009430;28;20054;-53
2023/04/07 08:34:56;;;;;;;18.17;13.15;;;9.10;78.30;;;;;;5005750;28;20023;-53
2023/04/07 08:37:43;;;;;;;18.85;13.60;;;9.30;77.60;;;;;;4995723;28;20508;-54
2023/04/07 08:40:29;;;;;;;15.13;13.40;;;9.40;77.40;;;;;;4995353;28;20037;-55
2023/04/07 08:43:17;;;;;;;15.00;12.55;;;9.50;75.80;;;;;;5007495;28;20112;-55
2023/04/07 08:46:04;;;;;;;15.50;12.48;;;9.30;76.20;;;;;;5014980;28;20034;-51
2023/04/07 08:48:51;;;;;;;13.50;11.95;;;9.30;76.30;;;;;;5010115;28;20059;-50
2023/04/07 08:51:43;;;;;;;16.23;12.30;;;9.30;76.30;;;;;;4995038;28;20030;-49
2023/04/07 08:54:29;;;;;;;15.07;12.02;;;9.30;75.60;;;;;;4995222;28;20174;-47
2023/04/07 08:57:16;;;;;;;14.25;12.00;;;9.20;74.90;;;;;;5000285;28;20041;-50
2023/04/07 09:00:04;;;;;;;15.30;11.98;;;9.30;74.20;;;;;;5013466;28;20026;-48
2023/04/07 09:02:51;;;;;;;16.30;12.07;;;9.40;74.50;;;;;;4999408;28;20026;-48
2023/04/07 09:05:38;;;;;;;15.18;10.98;;;9.60;74.60;;;;;;5013678;28;20431;-49
2023/04/07 09:08:24;;;;;;;17.85;11.65;;;9.50;73.60;;;;;;5013024;28;20033;-48
2023/04/07 09:11:11;;;;;;;15.57;11.85;;;9.40;74.20;;;;;;5013218;28;20100;-48
2023/04/07 09:13:57;;;;;;;16.63;11.63;;;9.50;74.40;;;;;;5012586;28;20037;-54
2023/04/07 09:16:44;;;;;;;14.60;11.10;;;9.70;74.60;;;;;;4985923;28;20056;-51
2023/04/07 09:19:31;;;;;;;15.55;10.80;;;9.90;73.60;;;;;;5012672;28;20030;-53
2023/04/07 09:22:37;;;;;;;15.23;10.35;;;10.00;72.60;;;;;;5013618;28;20026;-53
2023/04/07 09:25:26;;;;;;;13.13;10.75;;;10.20;71.80;;;;;;5012997;28;20188;-49
2023/04/07 09:28:11;;;;;;;13.55;10.75;;;10.10;70.60;;;;;;5012643;28;20037;-51
2023/04/07 09:30:57;;;;;;;17.98;12.65;;;10.10;71.80;;;;;;5013479;28;20117;-49
2023/04/07 09:33:43;;;;;;;16.73;11.85;;;10.30;70.70;;;;;;4994651;28;20569;-51
2023/04/07 09:36:41;;;;;;;14.00;11.00;;;10.20;70.20;;;;;;5017888;28;20029;-49
2023/04/07 09:39:27;;;;;;;14.38;11.48;;;10.10;70.40;;;;;;5020464;28;20568;-50
2023/04/07 09:42:13;;;;;;;15.43;11.55;;;10.30;70.00;;;;;;5013047;28;20049;-54
2023/04/07 09:45:00;;;;;;;15.68;11.45;;;10.30;70.50;;;;;;5012591;28;20044;-51
2023/04/07 09:47:46;;;;;;;14.55;10.90;;;10.50;70.60;;;;;;5011216;28;20510;-53
2023/04/07 09:50:40;;;;;;;14.80;11.23;;;10.70;70.70;;;;;;5006440;28;20026;-49
2023/04/07 09:53:50;;;;;;;15.57;10.93;;;10.90;69.90;;;;;;5010061;28;20097;-49
2023/04/07 09:56:36;;;;;;;12.55;10.05;;;10.70;68.50;;;;;;5010839;28;20046;-50
2023/04/07 09:59:22;;;;;;;13.07;10.25;;;10.70;68.50;;;;;;5011781;28;20037;-49
2023/04/07 10:02:08;;;;;;;14.48;10.88;;;10.70;68.90;;;;;;5009548;28;20434;-52
2023/04/07 10:04:54;;;;;;;13.48;9.13;;;10.70;67.80;;;;;;5010846;28;20101;-52
2023/04/07 10:07:41;;;;;;;10.38;8.82;;;10.80;67.70;;;;;;5010477;28;20045;-50
2023/04/07 10:10:29;;;;;;;13.73;9.15;;;10.80;67.10;;;;;;5010622;28;20045;-53
2023/04/07 10:13:15;;;;;;;11.15;9.23;;;10.90;67.00;;;;;;5010711;28;20022;-51
2023/04/07 10:16:05;;;;;;;15.85;10.88;;;11.10;67.30;;;;;;5010372;28;20018;-54
2023/04/07 10:18:51;;;;;;;13.05;9.55;;;11.10;66.50;;;;;;5009757;28;20025;-53
2023/04/07 10:21:41;;;;;;;13.35;10.50;;;11.00;66.80;;;;;;5011591;28;20034;-51
2023/04/07 10:24:53;;;;;;;15.02;11.32;;;11.10;67.50;;;;;;5011775;28;20026;-51
2023/04/07 10:27:51;;;;;;;14.02;11.48;;;11.00;68.20;;;;;;5008295;28;20565;-53
2023/04/07 10:30:38;;;;;;;16.48;13.10;;;11.20;68.60;;;;;;5010415;28;20513;-58
2023/04/07 10:33:43;;;;;;;16.33;12.40;;;11.40;68.80;;;;;;5010570;28;20038;-55
2023/04/07 10:36:29;;;;;;;16.95;13.38;;;11.20;68.50;;;;;;5009726;28;20649;-56
2023/04/07 10:39:19;;;;;;;16.42;12.45;;;11.40;68.90;;;;;;4996078;28;20116;-51
2023/04/07 10:42:05;;;;;;;20.77;14.55;;;11.50;68.70;;;;;;5009121;28;20034;-55
2023/04/07 10:44:51;;;;;;;24.90;14.60;;;11.60;69.60;;;;;;5009417;28;20518;-53
2023/04/07 10:48:09;;;;;;;15.57;13.27;;;11.70;69.60;;;;;;5009300;28;20030;-53
2023/04/07 10:51:21;;;;;;;12.68;11.35;;;11.70;68.60;;;;;;5008954;28;20022;-50
2023/04/07 10:54:21;;;;;;;15.32;12.18;;;11.80;68.70;;;;;;5009571;28;20030;-51
2023/04/07 10:57:12;;;;;;;14.68;12.88;;;11.90;68.60;;;;;;5008143;28;20502;-49
2023/04/07 11:00:11;;;;;;;13.43;11.85;;;11.80;68.30;;;;;;5010428;28;20068;-53
2023/04/07 11:02:56;;;;;;;14.63;12.35;;;11.90;67.60;;;;;;5008165;28;20030;-51
2023/04/07 11:05:42;;;;;;;18.25;13.98;;;11.90;68.50;;;;;;5009730;28;20025;-49
2023/04/07 11:08:35;;;;;;;15.98;12.45;;;11.80;69.00;;;;;;5008611;28;20034;-52
2023/04/07 11:11:37;;;;;;;16.88;11.48;;;11.90;68.70;;;;;;5010175;28;20030;-53
2023/04/07 11:14:27;;;;;;;15.27;12.65;;;11.80;67.30;;;;;;5008804;28;20446;-52
2023/04/07 11:17:16;;;;;;;16.75;11.23;;;12.00;67.90;;;;;;5007778;28;20053;-47
2023/04/07 11:20:02;;;;;;;14.98;12.20;;;11.90;67.80;;;;;;5008671;28;20038;-49
2023/04/07 11:23:06;;;;;;;13.38;11.20;;;11.90;67.80;;;;;;5009960;28;20025;-52
2023/04/07 11:26:00;;;;;;;14.57;12.05;;;12.00;67.00;;;;;;4993280;28;20025;-50
2023/04/07 11:28:47;;;;;;;15.32;11.80;;;12.10;66.80;;;;;;5009294;28;20022;-54
2023/04/07 11:31:33;;;;;;;14.70;11.07;;;12.30;66.80;;;;;;5001887;28;20034;-52
2023/04/07 11:34:20;;;;;;;14.50;10.98;;;12.30;65.30;;;;;;5008780;28;20034;-55
2023/04/07 11:37:23;;;;;;;11.60;9.82;;;12.10;65.60;;;;;;5005795;28;20029;-59
2023/04/07 11:40:10;;;;;;;13.75;10.45;;;12.40;66.40;;;;;;5008676;28;20050;-51
2023/04/07 11:42:56;;;;;;;12.90;10.43;;;12.50;65.60;;;;;;5010826;28;20026;-51
2023/04/07 11:45:42;;;;;;;13.98;11.35;;;12.70;65.50;;;;;;5007888;28;20053;-51
2023/04/07 11:48:30;;;;;;;13.80;11.50;;;12.70;65.00;;;;;;5009283;28;20033;-48
2023/04/07 11:51:17;;;;;;;14.55;11.57;;;12.70;65.40;;;;;;4997405;28;20027;-51
2023/04/07 11:54:04;;;;;;;14.77;10.88;;;12.60;65.70;;;;;;5010552;28;20045;-47
2023/04/07 11:56:54;;;;;;;15.30;9.57;;;12.80;69.80;;;;;;5003074;28;20113;-50
2023/04/07 11:59:40;;;;;;;14.93;10.07;;;13.10;70.50;;;;;;5007610;28;20024;-50
2023/04/07 12:02:31;;;;;;;14.68;10.63;;;13.30;68.20;;;;;;4993939;28;20029;-52
2023/04/07 12:05:17;;;;;;;12.65;9.70;;;13.20;68.80;;;;;;5009798;28;20529;-52
2023/04/07 12:08:03;;;;;;;11.98;9.98;;;13.30;68.00;;;;;;5004661;28;20398;-47
2023/04/07 12:11:03;;;;;;;13.00;10.80;;;13.60;68.10;;;;;;5004731;28;20096;-47
2023/04/07 12:13:49;;;;;;;15.55;10.93;;;13.70;64.50;;;;;;4994870;28;20418;-50
2023/04/07 12:16:37;;;;;;;14.00;10.07;;;13.90;66.10;;;;;;5002604;28;20034;-47
2023/04/07 12:19:26;;;;;;;17.00;10.45;;;13.90;64.10;;;;;;5006767;28;20530;-45
2023/04/07 12:22:12;;;;;;;11.20;9.98;;;13.60;65.40;;;;;;5005494;28;20064;-47
2023/04/07 12:24:58;;;;;;;15.75;11.93;;;13.60;65.40;;;;;;5011916;28;20101;-52
2023/04/07 12:27:44;;;;;;;16.48;12.02;;;13.30;63.60;;;;;;5012951;28;20042;-46
2023/04/07 12:30:30;;;;;;;13.05;11.05;;;13.40;63.60;;;;;;5007515;28;20049;-46
2023/04/07 12:33:16;;;;;;;17.02;12.68;;;13.50;64.10;;;;;;5007421;28;20033;-49
2023/04/07 12:36:02;;;;;;;14.65;10.90;;;13.40;63.80;;;;;;5011275;28;20535;-46
2023/04/07 12:38:48;;;;;;;14.00;10.73;;;13.50;63.60;;;;;;5012865;28;20132;-46
2023/04/07 12:41:37;;;;;;;14.02;10.15;;;13.50;62.70;;;;;;5009132;28;20094;-47
2023/04/07 12:44:23;;;;;;;13.60;9.68;;;13.30;63.50;;;;;;5014029;28;20088;-45
2023/04/07 12:47:11;;;;;;;13.52;9.75;;;13.60;63.00;;;;;;5008329;28;20042;-46
2023/04/07 12:49:57;;;;;;;14.07;9.90;;;13.60;62.40;;;;;;5008868;28;20060;-45
2023/04/07 12:52:42;;;;;;;11.15;9.25;;;13.50;62.40;;;;;;5015590;28;20084;-47
2023/04/07 12:55:29;;;;;;;12.32;9.30;;;13.90;62.60;;;;;;5014192;28;20033;-50
2023/04/07 12:58:16;;;;;;;14.48;9.35;;;13.90;62.30;;;;;;5010109;28;20395;-48
2023/04/07 13:01:02;;;;;;;10.90;9.70;;;14.00;61.90;;;;;;5014806;28;20506;-51
2023/04/07 13:03:48;;;;;;;13.57;8.93;;;13.90;62.60;;;;;;5012755;28;20030;-52
2023/04/07 13:06:34;;;;;;;12.07;8.85;;;13.90;61.30;;;;;;5005501;28;20046;-50
2023/04/07 13:09:20;;;;;;;12.70;9.07;;;13.80;61.30;;;;;;5012110;28;20030;-47
2023/04/07 13:12:06;;;;;;;12.07;9.27;;;13.90;62.00;;;;;;5013902;28;20030;-46
2023/04/07 13:14:52;;;;;;;10.20;8.23;;;13.90;61.70;;;;;;5009706;28;20157;-46
2023/04/07 13:17:37;;;;;;;10.60;8.70;;;14.10;62.60;;;;;;5009549;28;20022;-46
2023/04/07 13:20:26;;;;;;;9.32;8.32;;;14.10;61.90;;;;;;5011566;28;20030;-46
2023/04/07 13:23:12;;;;;;;9.95;8.70;;;13.80;62.60;;;;;;5007663;28;20037;-48
2023/04/07 13:25:58;;;;;;;11.00;8.15;;;13.70;61.80;;;;;;4995383;28;20097;-55
2023/04/07 13:28:44;;;;;;;8.98;8.02;;;13.70;62.50;;;;;;5012527;28;20122;-48
2023/04/07 13:31:30;;;;;;;10.82;8.20;;;13.70;62.60;;;;;;5011235;28;20057;-51
2023/04/07 13:34:17;;;;;;;10.80;8.30;;;13.80;62.90;;;;;;5012714;28;20026;-48
2023/04/07 13:37:04;;;;;;;10.75;8.57;;;13.90;62.30;;;;;;4995956;28;20037;-50
2023/04/07 13:39:51;;;;;;;11.07;8.05;;;14.00;61.70;;;;;;5012470;28;20025;-49
2023/04/07 13:42:38;;;;;;;10.32;7.55;;;14.10;61.70;;;;;;5011737;28;20110;-56
2023/04/07 13:45:24;;;;;;;10.55;8.75;;;14.30;61.40;;;;;;5012726;28;20030;-47
2023/04/07 13:48:10;;;;;;;10.32;8.52;;;14.40;61.00;;;;;;5010354;28;20037;-47
2023/04/07 13:50:56;;;;;;;10.60;8.55;;;14.80;61.30;;;;;;4990275;28;20065;-49
2023/04/07 13:53:42;;;;;;;9.52;8.23;;;14.90;60.80;;;;;;4997445;28;20508;-50
2023/04/07 13:56:28;;;;;;;10.10;8.45;;;15.00;59.50;;;;;;5010592;28;20458;-50
2023/04/07 13:59:14;;;;;;;9.73;8.27;;;15.00;59.80;;;;;;5011192;28;20049;-51
2023/04/07 14:02:00;;;;;;;10.32;8.00;;;15.20;59.80;;;;;;5006604;28;20116;-50
2023/04/07 14:04:46;;;;;;;11.63;8.02;;;14.90;60.50;;;;;;5012003;28;20105;-48
2023/04/07 14:07:33;;;;;;;11.50;8.65;;;15.10;60.50;;;;;;5007971;28;20368;-47
2023/04/07 14:10:19;;;;;;;9.45;7.93;;;15.30;59.10;;;;;;5010113;28;20089;-49
2023/04/07 14:13:05;;;;;;;11.73;8.43;;;15.10;59.50;;;;;;5005843;28;20104;-50
2023/04/07 14:15:52;;;;;;;10.50;7.60;;;15.30;59.10;;;;;;5007867;28;20109;-49
2023/04/07 14:18:38;;;;;;;10.20;8.60;;;15.00;58.70;;;;;;5011770;28;20029;-52
2023/04/07 14:21:26;;;;;;;13.60;9.27;;;15.00;58.70;;;;;;5011540;28;20045;-53